sensor_id;sensor_type;location;lat;lon;timestamp;temperature;humidity
1506;DHT22;744;51.436;7.356;2023-04-02T00:00:35;11.10;55.40
1506;DHT22;744;51.436;7.356;2023-04-02T00:03:04;11.20;55.50
1506;DHT22;744;51.436;7.356;2023-04-02T00:05:44;11.00;55.40
1506;DHT22;744;51.436;7.356;2023-04-02T00:08:29;10.70;55.10
1506;DHT22;744;51.436;7.356;2023-04-02T00:11:04;11.20;55.40
1506;DHT22;744;51.436;7.356;2023-04-02T00:13:35;11.10;55.60
1506;DHT22;744;51.436;7.356;2023-04-02T00:16:05;10.80;55.20
1506;DHT22;744;51.436;7.356;2023-04-02T00:18:36;10.70;55.30
1506;DHT22;744;51.436;7.356;2023-04-02T00:24:20;10.50;55.00
1506;DHT22;744;51.436;7.356;2023-04-02T00:26:51;10.70;54.80
1506;DHT22;744;51.436;7.356;2023-04-02T00:29:19;10.70;54.90
1506;DHT22;744;51.436;7.356;2023-04-02T00:31:49;10.60;54.90
1506;DHT22;744;51.436;7.356;2023-04-02T00:34:36;10.60;54.80
1506;DHT22;744;51.436;7.356;2023-04-02T00:37:03;10.50;54.80
1506;DHT22;744;51.436;7.356;2023-04-02T00:39:35;10.40;55.00
1506;DHT22;744;51.436;7.356;2023-04-02T00:42:04;10.60;55.30
1506;DHT22;744;51.436;7.356;2023-04-02T00:44:35;10.70;55.30
1506;DHT22;744;51.436;7.356;2023-04-02T00:47:23;10.60;55.10
1506;DHT22;744;51.436;7.356;2023-04-02T00:52:38;10.60;54.40
1506;DHT22;744;51.436;7.356;2023-04-02T00:55:21;10.50;54.60
1506;DHT22;744;51.436;7.356;2023-04-02T00:57:50;10.30;54.60
1506;DHT22;744;51.436;7.356;2023-04-02T01:00:29;10.40;54.70
1506;DHT22;744;51.436;7.356;2023-04-02T01:05:44;10.40;54.80
1506;DHT22;744;51.436;7.356;2023-04-02T01:08:21;10.40;54.90
1506;DHT22;744;51.436;7.356;2023-04-02T01:14:17;10.10;54.90
1506;DHT22;744;51.436;7.356;2023-04-02T01:16:50;10.10;55.10
1506;DHT22;744;51.436;7.356;2023-04-02T01:19:43;10.00;55.20
1506;DHT22;744;51.436;7.356;2023-04-02T01:22:27;10.00;55.10
1506;DHT22;744;51.436;7.356;2023-04-02T01:25:02;10.10;54.80
1506;DHT22;744;51.436;7.356;2023-04-02T01:27:38;10.00;54.70
1506;DHT22;744;51.436;7.356;2023-04-02T01:30:08;10.20;54.80
1506;DHT22;744;51.436;7.356;2023-04-02T01:32:37;10.00;54.70
1506;DHT22;744;51.436;7.356;2023-04-02T01:35:05;10.10;54.60
1506;DHT22;744;51.436;7.356;2023-04-02T01:45:46;9.90;55.80
1506;DHT22;744;51.436;7.356;2023-04-02T01:48:21;10.00;54.80
1506;DHT22;744;51.436;7.356;2023-04-02T01:50:50;10.00;54.40
1506;DHT22;744;51.436;7.356;2023-04-02T01:53:19;10.10;54.70
1506;DHT22;744;51.436;7.356;2023-04-02T01:55:55;10.10;54.80
1506;DHT22;744;51.436;7.356;2023-04-02T01:58:25;9.80;55.00
1506;DHT22;744;51.436;7.356;2023-04-02T02:01:01;10.00;54.50
1506;DHT22;744;51.436;7.356;2023-04-02T02:03:29;10.20;54.70
1506;DHT22;744;51.436;7.356;2023-04-02T02:05:57;10.10;54.50
1506;DHT22;744;51.436;7.356;2023-04-02T02:11:14;10.10;54.20
1506;DHT22;744;51.436;7.356;2023-04-02T02:13:56;10.00;54.00
1506;DHT22;744;51.436;7.356;2023-04-02T02:16:26;10.00;54.40
1506;DHT22;744;51.436;7.356;2023-04-02T02:19:01;10.10;53.90
1506;DHT22;744;51.436;7.356;2023-04-02T02:21:41;10.20;53.90
1506;DHT22;744;51.436;7.356;2023-04-02T02:24:24;10.10;53.70
1506;DHT22;744;51.436;7.356;2023-04-02T02:27:30;9.90;54.50
1506;DHT22;744;51.436;7.356;2023-04-02T02:30:12;9.80;54.50
1506;DHT22;744;51.436;7.356;2023-04-02T02:32:58;10.00;54.10
1506;DHT22;744;51.436;7.356;2023-04-02T02:35:36;9.70;54.90
1506;DHT22;744;51.436;7.356;2023-04-02T02:44:28;9.90;55.20
1506;DHT22;744;51.436;7.356;2023-04-02T02:49:36;9.50;54.80
1506;DHT22;744;51.436;7.356;2023-04-02T02:54:37;9.50;54.90
1506;DHT22;744;51.436;7.356;2023-04-02T02:57:07;9.50;55.00
1506;DHT22;744;51.436;7.356;2023-04-02T02:59:36;9.60;55.10
1506;DHT22;744;51.436;7.356;2023-04-02T03:02:04;9.80;55.00
1506;DHT22;744;51.436;7.356;2023-04-02T03:04:33;9.80;54.80
1506;DHT22;744;51.436;7.356;2023-04-02T03:07:03;9.70;54.50
1506;DHT22;744;51.436;7.356;2023-04-02T03:09:52;9.80;54.40
1506;DHT22;744;51.436;7.356;2023-04-02T03:15:37;9.40;54.30
1506;DHT22;744;51.436;7.356;2023-04-02T03:18:20;9.30;54.10
1506;DHT22;744;51.436;7.356;2023-04-02T03:20:55;9.60;54.50
1506;DHT22;744;51.436;7.356;2023-04-02T03:23:28;9.30;54.40
1506;DHT22;744;51.436;7.356;2023-04-02T03:26:14;9.40;54.40
1506;DHT22;744;51.436;7.356;2023-04-02T03:28:54;9.50;54.50
1506;DHT22;744;51.436;7.356;2023-04-02T03:31:30;9.40;54.70
1506;DHT22;744;51.436;7.356;2023-04-02T03:34:10;9.10;54.30
1506;DHT22;744;51.436;7.356;2023-04-02T03:36:55;9.30;54.40
1506;DHT22;744;51.436;7.356;2023-04-02T03:39:31;9.20;54.30
1506;DHT22;744;51.436;7.356;2023-04-02T03:42:07;9.20;54.00
1506;DHT22;744;51.436;7.356;2023-04-02T03:50:05;9.40;54.00
1506;DHT22;744;51.436;7.356;2023-04-02T03:52:35;9.20;54.10
1506;DHT22;744;51.436;7.356;2023-04-02T03:58:20;9.40;54.00
1506;DHT22;744;51.436;7.356;2023-04-02T04:01:23;9.10;54.00
1506;DHT22;744;51.436;7.356;2023-04-02T04:04:21;9.20;54.40
1506;DHT22;744;51.436;7.356;2023-04-02T04:06:50;9.20;54.10
1506;DHT22;744;51.436;7.356;2023-04-02T04:14:36;8.90;54.50
1506;DHT22;744;51.436;7.356;2023-04-02T04:17:20;8.90;54.50
1506;DHT22;744;51.436;7.356;2023-04-02T04:20:25;8.80;54.40
1506;DHT22;744;51.436;7.356;2023-04-02T04:22:53;9.20;54.50
1506;DHT22;744;51.436;7.356;2023-04-02T04:25:26;8.90;54.10
1506;DHT22;744;51.436;7.356;2023-04-02T04:28:25;9.10;54.00
1506;DHT22;744;51.436;7.356;2023-04-02T04:31:02;9.30;54.20
1506;DHT22;744;51.436;7.356;2023-04-02T04:33:40;9.10;54.20
1506;DHT22;744;51.436;7.356;2023-04-02T04:36:23;9.10;54.00
1506;DHT22;744;51.436;7.356;2023-04-02T04:38:57;9.00;53.90
1506;DHT22;744;51.436;7.356;2023-04-02T04:41:29;9.20;53.80
1506;DHT22;744;51.436;7.356;2023-04-02T04:46:58;9.20;54.00
1506;DHT22;744;51.436;7.356;2023-04-02T04:49:47;9.20;53.90
1506;DHT22;744;51.436;7.356;2023-04-02T04:52:29;9.10;53.70
1506;DHT22;744;51.436;7.356;2023-04-02T04:54:59;9.10;53.50
1506;DHT22;744;51.436;7.356;2023-04-02T04:57:37;8.90;53.60
1506;DHT22;744;51.436;7.356;2023-04-02T05:05:38;8.70;53.30
1506;DHT22;744;51.436;7.356;2023-04-02T05:08:19;8.90;53.60
1506;DHT22;744;51.436;7.356;2023-04-02T05:10:55;8.70;53.50
1506;DHT22;744;51.436;7.356;2023-04-02T05:13:53;8.80;53.50
1506;DHT22;744;51.436;7.356;2023-04-02T05:16:27;9.10;53.70
1506;DHT22;744;51.436;7.356;2023-04-02T05:19:10;8.70;53.20
1506;DHT22;744;51.436;7.356;2023-04-02T05:21:47;8.90;53.40
1506;DHT22;744;51.436;7.356;2023-04-02T05:27:34;8.70;53.30
1506;DHT22;744;51.436;7.356;2023-04-02T05:32:48;8.60;53.40
1506;DHT22;744;51.436;7.356;2023-04-02T05:35:18;8.90;53.50
1506;DHT22;744;51.436;7.356;2023-04-02T05:37:47;8.50;53.10
1506;DHT22;744;51.436;7.356;2023-04-02T05:40:30;8.70;53.10
1506;DHT22;744;51.436;7.356;2023-04-02T05:43:00;8.70;53.30
1506;DHT22;744;51.436;7.356;2023-04-02T05:45:35;8.50;53.00
1506;DHT22;744;51.436;7.356;2023-04-02T05:48:17;8.70;53.20
1506;DHT22;744;51.436;7.356;2023-04-02T05:50:50;8.80;53.00
1506;DHT22;744;51.436;7.356;2023-04-02T05:53:32;8.70;53.20
1506;DHT22;744;51.436;7.356;2023-04-02T05:56:14;8.60;53.20
1506;DHT22;744;51.436;7.356;2023-04-02T05:59:10;8.50;53.10
1506;DHT22;744;51.436;7.356;2023-04-02T06:01:45;8.70;53.10
1506;DHT22;744;51.436;7.356;2023-04-02T06:04:28;8.40;53.10
1506;DHT22;744;51.436;7.356;2023-04-02T06:07:20;8.40;53.20
1506;DHT22;744;51.436;7.356;2023-04-02T06:15:13;8.30;53.20
1506;DHT22;744;51.436;7.356;2023-04-02T06:17:51;8.50;53.10
1506;DHT22;744;51.436;7.356;2023-04-02T06:20:19;8.50;53.10
1506;DHT22;744;51.436;7.356;2023-04-02T06:23:18;8.30;52.80
1506;DHT22;744;51.436;7.356;2023-04-02T06:28:26;8.50;53.30
1506;DHT22;744;51.436;7.356;2023-04-02T06:30:59;8.50;53.20
1506;DHT22;744;51.436;7.356;2023-04-02T06:33:27;8.10;53.00
1506;DHT22;744;51.436;7.356;2023-04-02T06:35:54;8.40;53.10
1506;DHT22;744;51.436;7.356;2023-04-02T06:38:25;8.50;53.10
1506;DHT22;744;51.436;7.356;2023-04-02T06:40:56;8.60;53.20
1506;DHT22;744;51.436;7.356;2023-04-02T06:43:33;8.40;53.00
1506;DHT22;744;51.436;7.356;2023-04-02T06:46:30;8.70;53.20
1506;DHT22;744;51.436;7.356;2023-04-02T06:49:12;8.10;52.80
1506;DHT22;744;51.436;7.356;2023-04-02T06:51:42;8.50;53.20
1506;DHT22;744;51.436;7.356;2023-04-02T06:54:17;8.30;53.20
1506;DHT22;744;51.436;7.356;2023-04-02T06:56:51;8.50;53.30
1506;DHT22;744;51.436;7.356;2023-04-02T06:59:19;8.30;53.10
1506;DHT22;744;51.436;7.356;2023-04-02T07:01:50;8.00;52.90
1506;DHT22;744;51.436;7.356;2023-04-02T07:04:19;8.20;53.20
1506;DHT22;744;51.436;7.356;2023-04-02T07:06:46;8.20;53.10
1506;DHT22;744;51.436;7.356;2023-04-02T07:09:13;8.20;52.90
1506;DHT22;744;51.436;7.356;2023-04-02T07:11:39;8.40;52.90
1506;DHT22;744;51.436;7.356;2023-04-02T07:14:11;8.10;52.70
1506;DHT22;744;51.436;7.356;2023-04-02T07:16:39;8.20;52.80
1506;DHT22;744;51.436;7.356;2023-04-02T07:19:08;8.10;52.90
1506;DHT22;744;51.436;7.356;2023-04-02T07:21:39;8.10;52.90
1506;DHT22;744;51.436;7.356;2023-04-02T07:24:06;7.80;52.60
1506;DHT22;744;51.436;7.356;2023-04-02T07:26:33;7.90;52.60
1506;DHT22;744;51.436;7.356;2023-04-02T07:28:59;8.10;52.60
1506;DHT22;744;51.436;7.356;2023-04-02T07:31:27;7.80;52.20
1506;DHT22;744;51.436;7.356;2023-04-02T07:33:56;7.90;52.40
1506;DHT22;744;51.436;7.356;2023-04-02T07:36:26;7.80;52.30
1506;DHT22;744;51.436;7.356;2023-04-02T07:38:54;7.80;52.40
1506;DHT22;744;51.436;7.356;2023-04-02T07:41:20;8.10;52.70
1506;DHT22;744;51.436;7.356;2023-04-02T07:43:47;7.70;52.30
1506;DHT22;744;51.436;7.356;2023-04-02T07:46:14;7.80;52.30
1506;DHT22;744;51.436;7.356;2023-04-02T07:48:43;8.30;52.40
1506;DHT22;744;51.436;7.356;2023-04-02T07:51:22;8.10;52.10
1506;DHT22;744;51.436;7.356;2023-04-02T07:53:49;8.30;52.10
1506;DHT22;744;51.436;7.356;2023-04-02T07:56:22;8.30;52.00
1506;DHT22;744;51.436;7.356;2023-04-02T07:58:49;8.20;51.60
1506;DHT22;744;51.436;7.356;2023-04-02T08:01:20;8.40;51.90
1506;DHT22;744;51.436;7.356;2023-04-02T08:03:50;8.00;51.70
1506;DHT22;744;51.436;7.356;2023-04-02T08:06:19;8.30;52.10
1506;DHT22;744;51.436;7.356;2023-04-02T08:08:46;8.10;51.80
1506;DHT22;744;51.436;7.356;2023-04-02T08:11:13;8.00;51.70
1506;DHT22;744;51.436;7.356;2023-04-02T08:13:40;7.80;51.40
1506;DHT22;744;51.436;7.356;2023-04-02T08:16:07;7.90;51.40
1506;DHT22;744;51.436;7.356;2023-04-02T08:18:35;8.10;51.30
1506;DHT22;744;51.436;7.356;2023-04-02T08:21:04;8.10;51.30
1506;DHT22;744;51.436;7.356;2023-04-02T08:23:32;8.10;51.40
1506;DHT22;744;51.436;7.356;2023-04-02T08:25:58;7.90;51.30
1506;DHT22;744;51.436;7.356;2023-04-02T08:28:25;8.10;51.20
1506;DHT22;744;51.436;7.356;2023-04-02T08:30:52;7.90;50.90
1506;DHT22;744;51.436;7.356;2023-04-02T08:33:19;8.10;51.00
1506;DHT22;744;51.436;7.356;2023-04-02T08:35:48;8.10;51.20
1506;DHT22;744;51.436;7.356;2023-04-02T08:38:17;7.90;51.20
1506;DHT22;744;51.436;7.356;2023-04-02T08:40:48;8.10;51.30
1506;DHT22;744;51.436;7.356;2023-04-02T08:43:36;7.90;50.90
1506;DHT22;744;51.436;7.356;2023-04-02T08:47:18;7.80;50.60
1506;DHT22;744;51.436;7.356;2023-04-02T08:49:46;8.00;50.50
1506;DHT22;744;51.436;7.356;2023-04-02T08:52:35;8.20;50.90
1506;DHT22;744;51.436;7.356;2023-04-02T08:55:04;8.10;50.80
1506;DHT22;744;51.436;7.356;2023-04-02T08:57:53;8.00;50.50
1506;DHT22;744;51.436;7.356;2023-04-02T09:00:38;8.10;50.60
1506;DHT22;744;51.436;7.356;2023-04-02T09:03:28;7.90;50.70
1506;DHT22;744;51.436;7.356;2023-04-02T09:05:57;7.70;50.80
1506;DHT22;744;51.436;7.356;2023-04-02T09:08:26;8.00;51.10
1506;DHT22;744;51.436;7.356;2023-04-02T09:13:57;8.30;50.80
1506;DHT22;744;51.436;7.356;2023-04-02T09:16:45;8.30;50.50
1506;DHT22;744;51.436;7.356;2023-04-02T09:19:21;8.50;50.50
1506;DHT22;744;51.436;7.356;2023-04-02T09:22:12;8.60;50.60
1506;DHT22;744;51.436;7.356;2023-04-02T09:24:42;8.30;49.70
1506;DHT22;744;51.436;7.356;2023-04-02T09:27:23;8.30;49.60
1506;DHT22;744;51.436;7.356;2023-04-02T09:29:55;8.60;49.60
1506;DHT22;744;51.436;7.356;2023-04-02T09:32:53;8.50;49.50
1506;DHT22;744;51.436;7.356;2023-04-02T09:35:25;8.60;49.70
1506;DHT22;744;51.436;7.356;2023-04-02T09:38:21;8.50;49.50
1506;DHT22;744;51.436;7.356;2023-04-02T09:46:20;8.20;49.60
1506;DHT22;744;51.436;7.356;2023-04-02T09:48:56;8.10;49.50
1506;DHT22;744;51.436;7.356;2023-04-02T09:51:28;8.30;49.70
1506;DHT22;744;51.436;7.356;2023-04-02T09:56:34;8.20;49.40
1506;DHT22;744;51.436;7.356;2023-04-02T09:59:14;8.20;49.20
1506;DHT22;744;51.436;7.356;2023-04-02T10:01:44;8.30;49.30
1506;DHT22;744;51.436;7.356;2023-04-02T10:04:34;8.30;49.50
1506;DHT22;744;51.436;7.356;2023-04-02T10:07:03;8.30;49.40
1506;DHT22;744;51.436;7.356;2023-04-02T10:09:34;8.60;49.50
1506;DHT22;744;51.436;7.356;2023-04-02T10:12:04;8.70;49.20
1506;DHT22;744;51.436;7.356;2023-04-02T10:14:38;8.60;48.90
1506;DHT22;744;51.436;7.356;2023-04-02T10:17:33;8.60;48.70
1506;DHT22;744;51.436;7.356;2023-04-02T10:20:10;8.70;48.90
1506;DHT22;744;51.436;7.356;2023-04-02T10:22:43;8.50;48.80
1506;DHT22;744;51.436;7.356;2023-04-02T10:25:15;8.50;48.90
1506;DHT22;744;51.436;7.356;2023-04-02T10:30:47;8.50;48.60
1506;DHT22;744;51.436;7.356;2023-04-02T10:33:24;8.60;48.90
1506;DHT22;744;51.436;7.356;2023-04-02T10:41:27;8.50;48.50
1506;DHT22;744;51.436;7.356;2023-04-02T10:44:33;8.60;48.40
1506;DHT22;744;51.436;7.356;2023-04-02T10:47:14;8.80;48.40
1506;DHT22;744;51.436;7.356;2023-04-02T10:49:49;8.70;48.00
1506;DHT22;744;51.436;7.356;2023-04-02T10:52:30;8.80;48.20
1506;DHT22;744;51.436;7.356;2023-04-02T10:55:02;8.70;48.20
1506;DHT22;744;51.436;7.356;2023-04-02T10:57:38;8.70;48.30
1506;DHT22;744;51.436;7.356;2023-04-02T11:00:23;8.60;48.00
1506;DHT22;744;51.436;7.356;2023-04-02T11:05:31;9.00;47.80
1506;DHT22;744;51.436;7.356;2023-04-02T11:08:23;8.60;47.40
1506;DHT22;744;51.436;7.356;2023-04-02T11:11:02;9.00;47.80
1506;DHT22;744;51.436;7.356;2023-04-02T11:13:45;9.20;48.30
1506;DHT22;744;51.436;7.356;2023-04-02T11:16:13;9.20;47.90
1506;DHT22;744;51.436;7.356;2023-04-02T11:21:46;8.90;47.10
1506;DHT22;744;51.436;7.356;2023-04-02T11:42:44;9.50;46.50
1506;DHT22;744;51.436;7.356;2023-04-02T11:50:30;9.60;45.80
1506;DHT22;744;51.436;7.356;2023-04-02T11:55:41;9.20;46.00
1506;DHT22;744;51.436;7.356;2023-04-02T12:07:33;9.10;46.20
1506;DHT22;744;51.436;7.356;2023-04-02T12:10:14;9.20;45.70
1506;DHT22;744;51.436;7.356;2023-04-02T12:12:42;9.50;46.20
1506;DHT22;744;51.436;7.356;2023-04-02T12:15:44;9.50;45.90
1506;DHT22;744;51.436;7.356;2023-04-02T12:18:14;9.30;45.30
1506;DHT22;744;51.436;7.356;2023-04-02T12:20:47;9.40;45.60
1506;DHT22;744;51.436;7.356;2023-04-02T12:23:36;9.50;45.60
1506;DHT22;744;51.436;7.356;2023-04-02T12:26:29;9.50;45.50
1506;DHT22;744;51.436;7.356;2023-04-02T12:29:26;9.40;45.30
1506;DHT22;744;51.436;7.356;2023-04-02T12:31:55;9.20;45.20
1506;DHT22;744;51.436;7.356;2023-04-02T12:34:24;9.30;45.50
1506;DHT22;744;51.436;7.356;2023-04-02T12:36:55;9.30;45.40
1506;DHT22;744;51.436;7.356;2023-04-02T12:39:22;9.40;45.30
1506;DHT22;744;51.436;7.356;2023-04-02T12:41:53;9.40;45.50
1506;DHT22;744;51.436;7.356;2023-04-02T12:44:22;9.30;45.20
1506;DHT22;744;51.436;7.356;2023-04-02T12:46:50;9.40;45.00
1506;DHT22;744;51.436;7.356;2023-04-02T12:51:57;9.40;44.90
1506;DHT22;744;51.436;7.356;2023-04-02T12:54:24;9.30;44.70
1506;DHT22;744;51.436;7.356;2023-04-02T12:56:51;9.40;44.60
1506;DHT22;744;51.436;7.356;2023-04-02T12:59:34;9.70;44.80
1506;DHT22;744;51.436;7.356;2023-04-02T13:02:21;9.60;44.20
1506;DHT22;744;51.436;7.356;2023-04-02T13:04:49;9.60;44.90
1506;DHT22;744;51.436;7.356;2023-04-02T13:07:20;9.60;44.30
1506;DHT22;744;51.436;7.356;2023-04-02T13:10:23;9.60;44.20
1506;DHT22;744;51.436;7.356;2023-04-02T13:12:59;9.60;44.00
1506;DHT22;744;51.436;7.356;2023-04-02T13:15:32;9.50;43.70
1506;DHT22;744;51.436;7.356;2023-04-02T13:18:20;9.80;44.00
1506;DHT22;744;51.436;7.356;2023-04-02T13:20:58;9.60;43.70
1506;DHT22;744;51.436;7.356;2023-04-02T13:26:19;9.70;43.90
1506;DHT22;744;51.436;7.356;2023-04-02T13:29:15;9.50;43.90
1506;DHT22;744;51.436;7.356;2023-04-02T13:31:43;9.80;43.90
1506;DHT22;744;51.436;7.356;2023-04-02T13:34:10;9.90;43.20
1506;DHT22;744;51.436;7.356;2023-04-02T13:36:37;9.60;43.20
1506;DHT22;744;51.436;7.356;2023-04-02T13:39:04;10.10;42.40
1506;DHT22;744;51.436;7.356;2023-04-02T13:41:36;10.00;41.80
1506;DHT22;744;51.436;7.356;2023-04-02T13:44:05;10.10;41.40
1506;DHT22;744;51.436;7.356;2023-04-02T13:46:33;10.00;41.70
1506;DHT22;744;51.436;7.356;2023-04-02T13:49:00;10.20;42.30
1506;DHT22;744;51.436;7.356;2023-04-02T13:54:09;10.00;41.10
1506;DHT22;744;51.436;7.356;2023-04-02T13:56:39;10.10;41.50
1506;DHT22;744;51.436;7.356;2023-04-02T13:59:06;10.00;41.00
1506;DHT22;744;51.436;7.356;2023-04-02T14:01:33;10.00;40.90
1506;DHT22;744;51.436;7.356;2023-04-02T14:04:01;9.90;41.90
1506;DHT22;744;51.436;7.356;2023-04-02T14:11:59;10.70;40.80
1506;DHT22;744;51.436;7.356;2023-04-02T14:30:21;10.60;38.90
1506;DHT22;744;51.436;7.356;2023-04-02T14:32:54;10.80;39.10
1506;DHT22;744;51.436;7.356;2023-04-02T14:35:35;10.70;39.00
1506;DHT22;744;51.436;7.356;2023-04-02T14:38:16;10.80;39.20
1506;DHT22;744;51.436;7.356;2023-04-02T14:43:26;10.80;39.10
1506;DHT22;744;51.436;7.356;2023-04-02T14:46:06;10.60;38.90
1506;DHT22;744;51.436;7.356;2023-04-02T14:51:38;10.70;39.00
1506;DHT22;744;51.436;7.356;2023-04-02T14:54:45;10.50;38.80
1506;DHT22;744;51.436;7.356;2023-04-02T14:57:22;10.50;38.90
1506;DHT22;744;51.436;7.356;2023-04-02T14:59:59;10.60;38.80
1506;DHT22;744;51.436;7.356;2023-04-02T15:08:26;10.60;38.90
1506;DHT22;744;51.436;7.356;2023-04-02T15:13:30;10.70;38.90
1506;DHT22;744;51.436;7.356;2023-04-02T15:16:12;10.70;38.90
1506;DHT22;744;51.436;7.356;2023-04-02T15:18:40;10.60;38.90
1506;DHT22;744;51.436;7.356;2023-04-02T15:24:03;10.60;38.90
1506;DHT22;744;51.436;7.356;2023-04-02T15:34:51;10.70;38.20
1506;DHT22;744;51.436;7.356;2023-04-02T15:38:08;10.70;38.20
1506;DHT22;744;51.436;7.356;2023-04-02T15:46:20;10.40;37.70
1506;DHT22;744;51.436;7.356;2023-04-02T15:51:43;10.60;38.10
1506;DHT22;744;51.436;7.356;2023-04-02T15:57:15;10.70;38.40
1506;DHT22;744;51.436;7.356;2023-04-02T16:11:13;10.30;37.70
1506;DHT22;744;51.436;7.356;2023-04-02T16:13:41;10.60;38.30
1506;DHT22;744;51.436;7.356;2023-04-02T16:16:14;10.70;38.00
1506;DHT22;744;51.436;7.356;2023-04-02T16:19:01;10.70;37.70
1506;DHT22;744;51.436;7.356;2023-04-02T16:21:33;10.50;37.60
1506;DHT22;744;51.436;7.356;2023-04-02T16:24:01;10.50;37.80
1506;DHT22;744;51.436;7.356;2023-04-02T16:26:43;10.60;37.30
1506;DHT22;744;51.436;7.356;2023-04-02T16:34:59;10.20;37.50
1506;DHT22;744;51.436;7.356;2023-04-02T16:40:45;10.30;37.70
1506;DHT22;744;51.436;7.356;2023-04-02T16:43:44;10.20;37.50
1506;DHT22;744;51.436;7.356;2023-04-02T16:49:17;10.10;37.70
1506;DHT22;744;51.436;7.356;2023-04-02T16:55:12;9.90;38.40
1506;DHT22;744;51.436;7.356;2023-04-02T17:00:56;10.20;37.30
1506;DHT22;744;51.436;7.356;2023-04-02T17:15:03;9.90;38.20
1506;DHT22;744;51.436;7.356;2023-04-02T17:17:39;9.70;38.30
1506;DHT22;744;51.436;7.356;2023-04-02T17:20:16;9.80;38.60
1506;DHT22;744;51.436;7.356;2023-04-02T17:22:45;9.80;38.30
1506;DHT22;744;51.436;7.356;2023-04-02T17:25:25;9.80;38.40
1506;DHT22;744;51.436;7.356;2023-04-02T17:27:55;9.80;38.70
1506;DHT22;744;51.436;7.356;2023-04-02T17:30:47;9.90;38.30
1506;DHT22;744;51.436;7.356;2023-04-02T17:33:17;9.90;38.10
1506;DHT22;744;51.436;7.356;2023-04-02T17:52:28;9.70;38.20
1506;DHT22;744;51.436;7.356;2023-04-02T17:57:34;9.70;38.30
1506;DHT22;744;51.436;7.356;2023-04-02T18:03:24;9.80;38.20
1506;DHT22;744;51.436;7.356;2023-04-02T18:06:03;10.10;37.60
1506;DHT22;744;51.436;7.356;2023-04-02T18:14:22;9.90;38.90
1506;DHT22;744;51.436;7.356;2023-04-02T18:17:48;9.70;38.30
1506;DHT22;744;51.436;7.356;2023-04-02T18:19:56;9.70;38.50
1506;DHT22;744;51.436;7.356;2023-04-02T18:26:19;9.70;38.50
1506;DHT22;744;51.436;7.356;2023-04-02T18:35:58;9.60;38.80
1506;DHT22;744;51.436;7.356;2023-04-02T18:38:38;9.40;38.70
1506;DHT22;744;51.436;7.356;2023-04-02T18:46:57;9.60;39.00
1506;DHT22;744;51.436;7.356;2023-04-02T18:49:37;9.60;39.00
1506;DHT22;744;51.436;7.356;2023-04-02T18:52:13;9.50;39.00
1506;DHT22;744;51.436;7.356;2023-04-02T18:55:06;9.40;38.80
1506;DHT22;744;51.436;7.356;2023-04-02T18:57:39;9.50;39.20
1506;DHT22;744;51.436;7.356;2023-04-02T19:02:52;9.40;39.10
1506;DHT22;744;51.436;7.356;2023-04-02T19:05:38;9.50;39.10
1506;DHT22;744;51.436;7.356;2023-04-02T19:08:15;9.40;39.00
1506;DHT22;744;51.436;7.356;2023-04-02T19:10:46;9.50;39.10
1506;DHT22;744;51.436;7.356;2023-04-02T19:13:18;9.60;39.30
1506;DHT22;744;51.436;7.356;2023-04-02T19:21:04;9.50;39.10
1506;DHT22;744;51.436;7.356;2023-04-02T19:37:35;9.50;39.00
1506;DHT22;744;51.436;7.356;2023-04-02T19:42:50;9.60;39.00
1506;DHT22;744;51.436;7.356;2023-04-02T19:45:30;9.40;38.80
1506;DHT22;744;51.436;7.356;2023-04-02T19:48:02;9.60;38.80
1506;DHT22;744;51.436;7.356;2023-04-02T19:50:34;9.70;38.90
1506;DHT22;744;51.436;7.356;2023-04-02T19:53:00;9.80;39.10
1506;DHT22;744;51.436;7.356;2023-04-02T19:55:27;9.50;38.60
1506;DHT22;744;51.436;7.356;2023-04-02T19:57:54;9.60;38.90
1506;DHT22;744;51.436;7.356;2023-04-02T20:00:38;9.80;39.10
1506;DHT22;744;51.436;7.356;2023-04-02T20:03:05;9.60;39.10
1506;DHT22;744;51.436;7.356;2023-04-02T20:05:32;9.70;39.20
1506;DHT22;744;51.436;7.356;2023-04-02T20:07:59;9.70;39.30
1506;DHT22;744;51.436;7.356;2023-04-02T20:10:25;9.80;39.30
1506;DHT22;744;51.436;7.356;2023-04-02T20:12:52;9.90;39.40
1506;DHT22;744;51.436;7.356;2023-04-02T20:15:19;9.80;39.30
1506;DHT22;744;51.436;7.356;2023-04-02T20:17:46;9.80;39.40
1506;DHT22;744;51.436;7.356;2023-04-02T20:20:13;9.90;39.50
1506;DHT22;744;51.436;7.356;2023-04-02T20:22:41;9.80;39.30
1506;DHT22;744;51.436;7.356;2023-04-02T20:25:08;9.80;39.20
1506;DHT22;744;51.436;7.356;2023-04-02T20:27:35;9.80;39.30
1506;DHT22;744;51.436;7.356;2023-04-02T20:30:02;9.80;39.10
1506;DHT22;744;51.436;7.356;2023-04-02T20:32:29;9.80;39.30
1506;DHT22;744;51.436;7.356;2023-04-02T20:34:56;9.60;39.10
1506;DHT22;744;51.436;7.356;2023-04-02T20:37:23;9.60;39.20
1506;DHT22;744;51.436;7.356;2023-04-02T20:39:50;9.70;39.40
1506;DHT22;744;51.436;7.356;2023-04-02T20:42:17;9.60;39.60
1506;DHT22;744;51.436;7.356;2023-04-02T20:44:44;9.50;39.80
1506;DHT22;744;51.436;7.356;2023-04-02T20:47:11;9.30;40.10
1506;DHT22;744;51.436;7.356;2023-04-02T20:49:38;9.30;40.60
1506;DHT22;744;51.436;7.356;2023-04-02T20:52:05;9.10;40.80
1506;DHT22;744;51.436;7.356;2023-04-02T20:54:32;9.00;40.90
1506;DHT22;744;51.436;7.356;2023-04-02T20:56:59;8.60;40.70
1506;DHT22;744;51.436;7.356;2023-04-02T20:59:25;8.70;40.80
1506;DHT22;744;51.436;7.356;2023-04-02T21:01:52;8.50;40.90
1506;DHT22;744;51.436;7.356;2023-04-02T21:04:19;8.80;41.40
1506;DHT22;744;51.436;7.356;2023-04-02T21:06:47;8.70;41.50
1506;DHT22;744;51.436;7.356;2023-04-02T21:09:16;8.60;41.50
1506;DHT22;744;51.436;7.356;2023-04-02T21:11:43;8.60;41.60
1506;DHT22;744;51.436;7.356;2023-04-02T21:14:10;8.30;41.70
1506;DHT22;744;51.436;7.356;2023-04-02T21:16:38;8.40;41.80
1506;DHT22;744;51.436;7.356;2023-04-02T21:19:07;8.30;41.80
1506;DHT22;744;51.436;7.356;2023-04-02T21:21:36;8.10;41.70
1506;DHT22;744;51.436;7.356;2023-04-02T21:24:05;8.20;41.80
1506;DHT22;744;51.436;7.356;2023-04-02T21:26:35;8.30;41.90
1506;DHT22;744;51.436;7.356;2023-04-02T21:29:02;8.10;42.20
1506;DHT22;744;51.436;7.356;2023-04-02T21:31:35;7.90;42.10
1506;DHT22;744;51.436;7.356;2023-04-02T21:34:03;8.10;42.40
1506;DHT22;744;51.436;7.356;2023-04-02T21:36:36;8.00;42.60
1506;DHT22;744;51.436;7.356;2023-04-02T21:39:31;8.10;42.80
1506;DHT22;744;51.436;7.356;2023-04-02T21:41:59;8.30;42.90
1506;DHT22;744;51.436;7.356;2023-04-02T21:44:29;8.10;42.80
1506;DHT22;744;51.436;7.356;2023-04-02T21:46:56;8.00;42.90
1506;DHT22;744;51.436;7.356;2023-04-02T21:49:23;8.10;42.90
1506;DHT22;744;51.436;7.356;2023-04-02T21:51:51;8.00;43.00
1506;DHT22;744;51.436;7.356;2023-04-02T21:54:18;7.80;43.00
1506;DHT22;744;51.436;7.356;2023-04-02T21:56:46;8.00;43.10
1506;DHT22;744;51.436;7.356;2023-04-02T21:59:14;7.60;43.10
1506;DHT22;744;51.436;7.356;2023-04-02T22:01:46;7.60;43.20
1506;DHT22;744;51.436;7.356;2023-04-02T22:04:24;7.90;43.50
1506;DHT22;744;51.436;7.356;2023-04-02T22:06:52;7.70;44.00
1506;DHT22;744;51.436;7.356;2023-04-02T22:09:22;7.50;43.80
1506;DHT22;744;51.436;7.356;2023-04-02T22:11:52;7.80;43.30
1506;DHT22;744;51.436;7.356;2023-04-02T22:14:24;7.50;42.90
1506;DHT22;744;51.436;7.356;2023-04-02T22:16:51;7.60;43.00
1506;DHT22;744;51.436;7.356;2023-04-02T22:19:18;7.50;43.10
1506;DHT22;744;51.436;7.356;2023-04-02T22:21:45;7.30;43.20
1506;DHT22;744;51.436;7.356;2023-04-02T22:24:14;7.30;43.40
1506;DHT22;744;51.436;7.356;2023-04-02T22:26:41;7.50;43.50
1506;DHT22;744;51.436;7.356;2023-04-02T22:29:08;7.30;43.40
1506;DHT22;744;51.436;7.356;2023-04-02T22:31:35;7.20;43.50